sensor_id;sensor_type;location;lat;lon;timestamp;pressure;altitude;pressure_sealevel;temperature;humidity
63035;BME280;59750;53.356;-1.458;2022-08-21T00:02:24;100274.03;;;14.88;87.41
63035;BME280;59750;53.356;-1.458;2022-08-21T00:04:51;100278.06;;;14.92;87.30
63035;BME280;59750;53.356;-1.458;2022-08-21T00:07:19;100268.31;;;14.92;87.49
63035;BME280;59750;53.356;-1.458;2022-08-21T00:09:47;100270.81;;;14.94;86.71
63035;BME280;59750;53.356;-1.458;2022-08-21T00:12:13;100266.50;;;14.93;87.09
63035;BME280;59750;53.356;-1.458;2022-08-21T00:14:40;100267.19;;;14.95;86.90
63035;BME280;59750;53.356;-1.458;2022-08-21T00:17:06;100272.19;;;14.98;86.62
63035;BME280;59750;53.356;-1.458;2022-08-21T00:19:33;100269.84;;;14.95;87.13
63035;BME280;59750;53.356;-1.458;2022-08-21T00:22:00;100260.22;;;14.94;88.06
63035;BME280;59750;53.356;-1.458;2022-08-21T00:24:26;100271.13;;;14.91;87.83
63035;BME280;59750;53.356;-1.458;2022-08-21T00:26:52;100266.78;;;14.90;87.65
63035;BME280;59750;53.356;-1.458;2022-08-21T00:29:19;100263.06;;;14.82;87.50
63035;BME280;59750;53.356;-1.458;2022-08-21T00:31:46;100251.47;;;14.83;88.39
63035;BME280;59750;53.356;-1.458;2022-08-21T00:34:12;100254.13;;;14.83;88.66
63035;BME280;59750;53.356;-1.458;2022-08-21T00:36:39;100245.75;;;14.78;88.78
63035;BME280;59750;53.356;-1.458;2022-08-21T00:39:07;100247.03;;;14.74;89.16
63035;BME280;59750;53.356;-1.458;2022-08-21T00:41:35;100243.28;;;14.67;88.80
63035;BME280;59750;53.356;-1.458;2022-08-21T00:44:02;100241.91;;;14.63;88.92
63035;BME280;59750;53.356;-1.458;2022-08-21T00:46:30;100242.03;;;14.62;89.38
63035;BME280;59750;53.356;-1.458;2022-08-21T00:48:56;100240.22;;;14.62;89.13
63035;BME280;59750;53.356;-1.458;2022-08-21T00:51:26;100247.19;;;14.63;89.05
63035;BME280;59750;53.356;-1.458;2022-08-21T00:53:57;100249.44;;;14.58;89.22
63035;BME280;59750;53.356;-1.458;2022-08-21T00:56:25;100243.44;;;14.56;90.05
63035;BME280;59750;53.356;-1.458;2022-08-21T00:58:53;100253.50;;;14.52;89.88
63035;BME280;59750;53.356;-1.458;2022-08-21T01:01:19;100248.06;;;14.54;90.20
63035;BME280;59750;53.356;-1.458;2022-08-21T01:03:46;100246.38;;;14.53;90.42
63035;BME280;59750;53.356;-1.458;2022-08-21T01:06:13;100239.69;;;14.49;89.53
63035;BME280;59750;53.356;-1.458;2022-08-21T01:08:39;100240.78;;;14.46;90.34
63035;BME280;59750;53.356;-1.458;2022-08-21T01:11:05;100238.44;;;14.43;90.24
63035;BME280;59750;53.356;-1.458;2022-08-21T01:13:34;100238.81;;;14.39;90.56
63035;BME280;59750;53.356;-1.458;2022-08-21T01:16:04;100241.75;;;14.36;89.80
63035;BME280;59750;53.356;-1.458;2022-08-21T01:18:34;100248.59;;;14.38;90.84
63035;BME280;59750;53.356;-1.458;2022-08-21T01:23:32;100251.38;;;14.37;90.73
63035;BME280;59750;53.356;-1.458;2022-08-21T01:25:59;100242.44;;;14.38;91.20
63035;BME280;59750;53.356;-1.458;2022-08-21T01:28:26;100238.69;;;14.40;91.01
63035;BME280;59750;53.356;-1.458;2022-08-21T01:30:53;100247.75;;;14.38;91.69
63035;BME280;59750;53.356;-1.458;2022-08-21T01:33:22;100236.47;;;14.36;91.27
63035;BME280;59750;53.356;-1.458;2022-08-21T01:35:50;100243.44;;;14.37;90.52
63035;BME280;59750;53.356;-1.458;2022-08-21T01:38:16;100241.34;;;14.31;91.12
63035;BME280;59750;53.356;-1.458;2022-08-21T01:40:43;100241.91;;;14.25;91.61
63035;BME280;59750;53.356;-1.458;2022-08-21T01:43:10;100251.63;;;14.24;91.36
63035;BME280;59750;53.356;-1.458;2022-08-21T01:45:36;100248.59;;;14.29;90.80
63035;BME280;59750;53.356;-1.458;2022-08-21T01:48:02;100247.91;;;14.27;91.27
63035;BME280;59750;53.356;-1.458;2022-08-21T01:50:30;100251.38;;;14.27;91.39
63035;BME280;59750;53.356;-1.458;2022-08-21T01:52:56;100255.84;;;14.27;91.45
63035;BME280;59750;53.356;-1.458;2022-08-21T01:55:22;100253.44;;;14.23;91.78
63035;BME280;59750;53.356;-1.458;2022-08-21T01:57:49;100248.56;;;14.19;92.43
63035;BME280;59750;53.356;-1.458;2022-08-21T02:00:18;100251.63;;;14.14;92.14
63035;BME280;59750;53.356;-1.458;2022-08-21T02:02:44;100251.78;;;14.13;92.67
63035;BME280;59750;53.356;-1.458;2022-08-21T02:05:11;100255.53;;;14.10;92.69
63035;BME280;59750;53.356;-1.458;2022-08-21T02:07:43;100250.66;;;14.06;92.96
63035;BME280;59750;53.356;-1.458;2022-08-21T02:10:11;100248.28;;;14.12;92.94
63035;BME280;59750;53.356;-1.458;2022-08-21T02:12:38;100243.16;;;14.11;92.75
63035;BME280;59750;53.356;-1.458;2022-08-21T02:15:06;100241.34;;;14.11;91.96
63035;BME280;59750;53.356;-1.458;2022-08-21T02:17:52;100254.97;;;14.16;91.83
63035;BME280;59750;53.356;-1.458;2022-08-21T02:20:23;100258.59;;;14.15;92.00
63035;BME280;59750;53.356;-1.458;2022-08-21T02:22:50;100258.88;;;14.12;92.42
63035;BME280;59750;53.356;-1.458;2022-08-21T02:25:17;100264.59;;;14.08;92.01
63035;BME280;59750;53.356;-1.458;2022-08-21T02:27:45;100259.72;;;14.03;93.00
63035;BME280;59750;53.356;-1.458;2022-08-21T02:30:18;100248.16;;;14.04;93.12
63035;BME280;59750;53.356;-1.458;2022-08-21T02:32:44;100250.81;;;14.04;92.41
63035;BME280;59750;53.356;-1.458;2022-08-21T02:35:12;100247.19;;;14.05;93.10
63035;BME280;59750;53.356;-1.458;2022-08-21T02:37:46;100255.13;;;14.05;92.62
63035;BME280;59750;53.356;-1.458;2022-08-21T02:40:13;100252.47;;;14.05;92.96
63035;BME280;59750;53.356;-1.458;2022-08-21T02:42:39;100243.56;;;14.06;93.31
63035;BME280;59750;53.356;-1.458;2022-08-21T02:45:07;100244.00;;;14.02;92.83
63035;BME280;59750;53.356;-1.458;2022-08-21T02:47:33;100239.81;;;13.99;92.21
63035;BME280;59750;53.356;-1.458;2022-08-21T02:49:59;100243.25;;;13.90;93.64
63035;BME280;59750;53.356;-1.458;2022-08-21T02:52:25;100254.13;;;13.87;93.05
63035;BME280;59750;53.356;-1.458;2022-08-21T02:54:50;100243.13;;;13.91;92.97
63035;BME280;59750;53.356;-1.458;2022-08-21T02:57:17;100237.41;;;13.86;93.24
63035;BME280;59750;53.356;-1.458;2022-08-21T02:59:43;100237.84;;;13.82;93.46
63035;BME280;59750;53.356;-1.458;2022-08-21T03:02:08;100244.91;;;13.72;94.24
63035;BME280;59750;53.356;-1.458;2022-08-21T03:04:34;100246.59;;;13.73;95.34
63035;BME280;59750;53.356;-1.458;2022-08-21T03:07:00;100233.75;;;13.68;94.62
63035;BME280;59750;53.356;-1.458;2022-08-21T03:09:26;100225.00;;;13.68;95.74
63035;BME280;59750;53.356;-1.458;2022-08-21T03:11:52;100227.25;;;13.72;95.56
63035;BME280;59750;53.356;-1.458;2022-08-21T03:14:19;100220.03;;;13.74;94.57
63035;BME280;59750;53.356;-1.458;2022-08-21T03:16:45;100226.84;;;13.77;94.93
63035;BME280;59750;53.356;-1.458;2022-08-21T03:19:11;100225.44;;;13.73;95.82
63035;BME280;59750;53.356;-1.458;2022-08-21T03:21:38;100213.06;;;13.73;95.52
63035;BME280;59750;53.356;-1.458;2022-08-21T03:24:04;100205.97;;;13.74;95.39
63035;BME280;59750;53.356;-1.458;2022-08-21T03:26:30;100211.78;;;13.68;96.15
63035;BME280;59750;53.356;-1.458;2022-08-21T03:28:57;100208.44;;;13.66;96.11
63035;BME280;59750;53.356;-1.458;2022-08-21T03:31:24;100201.19;;;13.68;96.02
63035;BME280;59750;53.356;-1.458;2022-08-21T03:33:52;100210.09;;;13.67;96.43
63035;BME280;59750;53.356;-1.458;2022-08-21T03:36:20;100208.88;;;13.71;95.38
63035;BME280;59750;53.356;-1.458;2022-08-21T03:38:46;100209.72;;;13.71;95.71
63035;BME280;59750;53.356;-1.458;2022-08-21T03:41:12;100213.44;;;13.69;96.79
63035;BME280;59750;53.356;-1.458;2022-08-21T03:43:38;100222.34;;;13.68;96.61
63035;BME280;59750;53.356;-1.458;2022-08-21T03:46:05;100221.38;;;13.69;96.96
63035;BME280;59750;53.356;-1.458;2022-08-21T03:48:33;100222.22;;;13.69;97.31
63035;BME280;59750;53.356;-1.458;2022-08-21T03:51:00;100218.72;;;13.69;97.05
63035;BME280;59750;53.356;-1.458;2022-08-21T03:53:26;100227.63;;;13.68;97.91
63035;BME280;59750;53.356;-1.458;2022-08-21T03:55:52;100231.00;;;13.70;97.77
63035;BME280;59750;53.356;-1.458;2022-08-21T03:58:22;100224.47;;;13.74;97.52
63035;BME280;59750;53.356;-1.458;2022-08-21T04:00:49;100235.47;;;13.79;97.02
63035;BME280;59750;53.356;-1.458;2022-08-21T04:03:16;100233.53;;;13.81;96.85
63035;BME280;59750;53.356;-1.458;2022-08-21T04:05:43;100243.81;;;13.84;97.31
63035;BME280;59750;53.356;-1.458;2022-08-21T04:08:11;100236.59;;;13.86;96.95
63035;BME280;59750;53.356;-1.458;2022-08-21T04:10:39;100241.88;;;13.86;96.64
63035;BME280;59750;53.356;-1.458;2022-08-21T04:13:08;100245.50;;;13.85;96.64
63035;BME280;59750;53.356;-1.458;2022-08-21T04:15:34;100244.94;;;13.81;96.81
63035;BME280;59750;53.356;-1.458;2022-08-21T04:18:01;100248.53;;;13.80;97.30
63035;BME280;59750;53.356;-1.458;2022-08-21T04:20:27;100255.66;;;13.80;97.09
63035;BME280;59750;53.356;-1.458;2022-08-21T04:22:54;100256.63;;;13.79;97.43
63035;BME280;59750;53.356;-1.458;2022-08-21T04:25:22;100261.06;;;13.78;96.67
63035;BME280;59750;53.356;-1.458;2022-08-21T04:27:49;100254.09;;;13.77;97.14
63035;BME280;59750;53.356;-1.458;2022-08-21T04:30:16;100260.94;;;13.80;97.83
63035;BME280;59750;53.356;-1.458;2022-08-21T04:32:46;100267.75;;;13.82;97.20
63035;BME280;59750;53.356;-1.458;2022-08-21T04:35:14;100266.63;;;13.85;97.60
63035;BME280;59750;53.356;-1.458;2022-08-21T04:37:41;100268.16;;;13.87;98.80
63035;BME280;59750;53.356;-1.458;2022-08-21T04:40:09;100255.78;;;13.88;98.76
63035;BME280;59750;53.356;-1.458;2022-08-21T04:42:44;100255.78;;;13.88;99.62
63035;BME280;59750;53.356;-1.458;2022-08-21T04:45:23;100270.97;;;13.86;100.00
63035;BME280;59750;53.356;-1.458;2022-08-21T04:47:51;100269.00;;;13.88;99.70
63035;BME280;59750;53.356;-1.458;2022-08-21T04:50:19;100265.38;;;13.89;99.27
63035;BME280;59750;53.356;-1.458;2022-08-21T04:52:46;100265.38;;;13.89;99.87
63035;BME280;59750;53.356;-1.458;2022-08-21T04:55:12;100275.81;;;13.90;100.00
63035;BME280;59750;53.356;-1.458;2022-08-21T04:57:39;100274.72;;;13.93;100.00
63035;BME280;59750;53.356;-1.458;2022-08-21T05:00:08;100275.69;;;13.92;100.00
63035;BME280;59750;53.356;-1.458;2022-08-21T05:02:37;100280.00;;;13.93;100.00
63035;BME280;59750;53.356;-1.458;2022-08-21T05:05:04;100280.00;;;13.93;100.00
63035;BME280;59750;53.356;-1.458;2022-08-21T05:07:31;100286.97;;;13.94;100.00
63035;BME280;59750;53.356;-1.458;2022-08-21T05:09:59;100292.94;;;13.96;99.81
63035;BME280;59750;53.356;-1.458;2022-08-21T05:12:26;100299.81;;;13.99;100.00
63035;BME280;59750;53.356;-1.458;2022-08-21T05:14:52;100301.47;;;14.00;100.00
63035;BME280;59750;53.356;-1.458;2022-08-21T05:17:18;100288.38;;;13.98;100.00
63035;BME280;59750;53.356;-1.458;2022-08-21T05:19:44;100288.25;;;14.00;100.00
63035;BME280;59750;53.356;-1.458;2022-08-21T05:22:09;100290.06;;;13.99;100.00
63035;BME280;59750;53.356;-1.458;2022-08-21T05:24:35;100284.63;;;14.01;100.00
63035;BME280;59750;53.356;-1.458;2022-08-21T05:27:02;100290.75;;;14.01;99.94
63035;BME280;59750;53.356;-1.458;2022-08-21T05:29:29;100300.38;;;14.02;99.90
63035;BME280;59750;53.356;-1.458;2022-08-21T05:31:55;100306.34;;;14.04;99.71
63035;BME280;59750;53.356;-1.458;2022-08-21T05:34:23;100309.00;;;14.04;100.00
63035;BME280;59750;53.356;-1.458;2022-08-21T05:36:49;100312.63;;;14.03;100.00
63035;BME280;59750;53.356;-1.458;2022-08-21T05:39:15;100316.78;;;14.06;100.00
63035;BME280;59750;53.356;-1.458;2022-08-21T05:41:41;100315.97;;;14.05;100.00
63035;BME280;59750;53.356;-1.458;2022-08-21T05:44:08;100317.63;;;14.06;100.00
63035;BME280;59750;53.356;-1.458;2022-08-21T05:46:33;100321.09;;;14.07;100.00
63035;BME280;59750;53.356;-1.458;2022-08-21T05:49:01;100321.66;;;14.10;100.00
63035;BME280;59750;53.356;-1.458;2022-08-21T05:51:27;100331.84;;;14.15;100.00
63035;BME280;59750;53.356;-1.458;2022-08-21T05:53:53;100327.25;;;14.17;100.00
63035;BME280;59750;53.356;-1.458;2022-08-21T05:56:19;100325.16;;;14.20;100.00
63035;BME280;59750;53.356;-1.458;2022-08-21T05:58:45;100333.53;;;14.26;100.00
63035;BME280;59750;53.356;-1.458;2022-08-21T06:01:10;100336.75;;;14.29;100.00
63035;BME280;59750;53.356;-1.458;2022-08-21T06:03:38;100332.97;;;14.32;100.00
63035;BME280;59750;53.356;-1.458;2022-08-21T06:06:05;100338.00;;;14.35;100.00
63035;BME280;59750;53.356;-1.458;2022-08-21T06:08:32;100343.00;;;14.38;100.00
63035;BME280;59750;53.356;-1.458;2022-08-21T06:10:59;100343.00;;;14.38;100.00
63035;BME280;59750;53.356;-1.458;2022-08-21T06:13:26;100338.69;;;14.37;100.00
63035;BME280;59750;53.356;-1.458;2022-08-21T06:16:12;100334.94;;;14.39;100.00
63035;BME280;59750;53.356;-1.458;2022-08-21T06:18:40;100340.81;;;14.43;100.00
63035;BME280;59750;53.356;-1.458;2022-08-21T06:21:06;100343.47;;;14.43;100.00
63035;BME280;59750;53.356;-1.458;2022-08-21T06:23:34;100349.16;;;14.48;100.00
63035;BME280;59750;53.356;-1.458;2022-08-21T06:26:01;100343.59;;;14.51;100.00
63035;BME280;59750;53.356;-1.458;2022-08-21T06:28:28;100345.84;;;14.56;100.00
63035;BME280;59750;53.356;-1.458;2022-08-21T06:30:54;100356.00;;;14.60;100.00
63035;BME280;59750;53.356;-1.458;2022-08-21T06:33:22;100346.97;;;14.63;100.00
63035;BME280;59750;53.356;-1.458;2022-08-21T06:35:49;100343.06;;;14.67;100.00
63035;BME280;59750;53.356;-1.458;2022-08-21T06:38:16;100341.66;;;14.72;99.68
63035;BME280;59750;53.356;-1.458;2022-08-21T06:40:42;100347.22;;;14.79;100.00
63035;BME280;59750;53.356;-1.458;2022-08-21T06:43:12;100348.63;;;14.83;100.00
63035;BME280;59750;53.356;-1.458;2022-08-21T06:45:43;100355.03;;;14.80;100.00
63035;BME280;59750;53.356;-1.458;2022-08-21T06:48:09;100346.38;;;14.78;100.00
63035;BME280;59750;53.356;-1.458;2022-08-21T06:50:36;100357.38;;;14.74;100.00
63035;BME280;59750;53.356;-1.458;2022-08-21T06:53:09;100346.94;;;14.72;99.97
63035;BME280;59750;53.356;-1.458;2022-08-21T06:55:36;100348.47;;;14.75;99.59
63035;BME280;59750;53.356;-1.458;2022-08-21T06:58:04;100347.09;;;14.80;98.61
63035;BME280;59750;53.356;-1.458;2022-08-21T07:00:31;100340.53;;;14.84;98.80
63035;BME280;59750;53.356;-1.458;2022-08-21T07:02:58;100351.69;;;14.88;98.07
63035;BME280;59750;53.356;-1.458;2022-08-21T07:05:26;100348.59;;;14.93;98.36
63035;BME280;59750;53.356;-1.458;2022-08-21T07:07:54;100337.72;;;14.96;98.21
63035;BME280;59750;53.356;-1.458;2022-08-21T07:10:21;100353.34;;;14.99;97.90
63035;BME280;59750;53.356;-1.458;2022-08-21T07:12:47;100348.72;;;15.01;97.04
63035;BME280;59750;53.356;-1.458;2022-08-21T07:15:13;100346.91;;;15.11;97.15
63035;BME280;59750;53.356;-1.458;2022-08-21T07:17:39;100347.72;;;15.21;96.46
63035;BME280;59750;53.356;-1.458;2022-08-21T07:20:05;100358.56;;;15.37;96.29
63035;BME280;59750;53.356;-1.458;2022-08-21T07:22:32;100366.03;;;15.52;96.19
63035;BME280;59750;53.356;-1.458;2022-08-21T07:24:59;100367.69;;;15.72;96.15
63035;BME280;59750;53.356;-1.458;2022-08-21T07:27:25;100360.91;;;15.87;95.19
63035;BME280;59750;53.356;-1.458;2022-08-21T07:29:51;100359.50;;;15.93;93.79
63035;BME280;59750;53.356;-1.458;2022-08-21T07:32:17;100360.34;;;15.93;93.34
63035;BME280;59750;53.356;-1.458;2022-08-21T07:34:43;100362.84;;;15.95;92.83
63035;BME280;59750;53.356;-1.458;2022-08-21T07:37:10;100365.03;;;15.99;91.97
63035;BME280;59750;53.356;-1.458;2022-08-21T07:39:36;100362.78;;;16.04;91.46
63035;BME280;59750;53.356;-1.458;2022-08-21T07:42:02;100375.41;;;16.20;89.91
63035;BME280;59750;53.356;-1.458;2022-08-21T07:44:29;100379.34;;;16.34;90.23
63035;BME280;59750;53.356;-1.458;2022-08-21T07:46:55;100374.03;;;16.34;89.25
63035;BME280;59750;53.356;-1.458;2022-08-21T07:49:21;100376.84;;;16.32;89.19
63035;BME280;59750;53.356;-1.458;2022-08-21T07:51:47;100372.84;;;16.28;89.40
63035;BME280;59750;53.356;-1.458;2022-08-21T07:54:14;100375.78;;;16.43;88.26
63035;BME280;59750;53.356;-1.458;2022-08-21T07:56:40;100376.06;;;16.67;86.57
63035;BME280;59750;53.356;-1.458;2022-08-21T07:59:06;100377.72;;;17.04;86.50
63035;BME280;59750;53.356;-1.458;2022-08-21T08:01:32;100374.19;;;17.47;85.56
63035;BME280;59750;53.356;-1.458;2022-08-21T08:03:58;100382.66;;;17.69;81.12
63035;BME280;59750;53.356;-1.458;2022-08-21T08:06:25;100385.56;;;17.83;80.11
63035;BME280;59750;53.356;-1.458;2022-08-21T08:08:51;100379.69;;;18.14;79.54
63035;BME280;59750;53.356;-1.458;2022-08-21T08:11:17;100386.75;;;18.39;78.05
63035;BME280;59750;53.356;-1.458;2022-08-21T08:13:47;100378.44;;;18.42;77.37
63035;BME280;59750;53.356;-1.458;2022-08-21T08:16:15;100376.41;;;18.28;77.43
63035;BME280;59750;53.356;-1.458;2022-08-21T08:18:42;100368.06;;;18.15;74.97
63035;BME280;59750;53.356;-1.458;2022-08-21T08:21:11;100368.06;;;18.31;75.55
63035;BME280;59750;53.356;-1.458;2022-08-21T08:23:38;100365.13;;;18.42;75.62
63035;BME280;59750;53.356;-1.458;2022-08-21T08:26:05;100362.53;;;18.83;74.52
63035;BME280;59750;53.356;-1.458;2022-08-21T08:28:32;100368.50;;;19.26;76.74
63035;BME280;59750;53.356;-1.458;2022-08-21T08:30:59;100365.97;;;19.57;70.41
63035;BME280;59750;53.356;-1.458;2022-08-21T08:33:27;100369.34;;;19.90;69.79
63035;BME280;59750;53.356;-1.458;2022-08-21T08:35:54;100367.31;;;20.00;68.82
63035;BME280;59750;53.356;-1.458;2022-08-21T08:38:22;100376.19;;;20.31;67.78
63035;BME280;59750;53.356;-1.458;2022-08-21T08:41:11;100375.47;;;20.37;66.51
63035;BME280;59750;53.356;-1.458;2022-08-21T08:43:40;100358.69;;;20.52;68.11
63035;BME280;59750;53.356;-1.458;2022-08-21T08:46:14;100370.19;;;20.83;65.14
63035;BME280;59750;53.356;-1.458;2022-08-21T08:48:50;100371.72;;;20.55;65.90
63035;BME280;59750;53.356;-1.458;2022-08-21T08:51:32;100370.38;;;20.20;67.55
63035;BME280;59750;53.356;-1.458;2022-08-21T08:54:06;100384.84;;;20.33;67.67
63035;BME280;59750;53.356;-1.458;2022-08-21T08:56:35;100366.41;;;20.47;65.33
63035;BME280;59750;53.356;-1.458;2022-08-21T08:59:08;100372.25;;;20.73;63.44
63035;BME280;59750;53.356;-1.458;2022-08-21T09:01:39;100374.91;;;20.73;58.71
63035;BME280;59750;53.356;-1.458;2022-08-21T09:04:06;100384.13;;;20.40;65.29
63035;BME280;59750;53.356;-1.458;2022-08-21T09:06:36;100376.72;;;20.19;65.13
63035;BME280;59750;53.356;-1.458;2022-08-21T09:12:00;100382.78;;;19.73;66.12
63035;BME280;59750;53.356;-1.458;2022-08-21T09:17:26;100395.66;;;19.13;70.55
63035;BME280;59750;53.356;-1.458;2022-08-21T09:20:20;100405.16;;;18.83;70.87
63035;BME280;59750;53.356;-1.458;2022-08-21T09:25:34;100396.28;;;18.58;70.35
63035;BME280;59750;53.356;-1.458;2022-08-21T09:28:08;100400.69;;;18.33;68.25
63035;BME280;59750;53.356;-1.458;2022-08-21T09:30:40;100405.00;;;18.18;67.17
63035;BME280;59750;53.356;-1.458;2022-08-21T09:33:08;100411.41;;;17.99;67.16
63035;BME280;59750;53.356;-1.458;2022-08-21T09:35:35;100409.25;;;18.03;71.81
63035;BME280;59750;53.356;-1.458;2022-08-21T09:38:06;100411.47;;;18.15;71.28
63035;BME280;59750;53.356;-1.458;2022-08-21T09:45:35;100409.25;;;18.45;70.20
63035;BME280;59750;53.356;-1.458;2022-08-21T09:48:24;100407.41;;;18.53;69.67
63035;BME280;59750;53.356;-1.458;2022-08-21T09:50:53;100404.31;;;18.66;66.99
63035;BME280;59750;53.356;-1.458;2022-08-21T09:53:23;100402.00;;;18.63;69.95
63035;BME280;59750;53.356;-1.458;2022-08-21T09:55:56;100390.44;;;18.54;65.34
63035;BME280;59750;53.356;-1.458;2022-08-21T09:58:45;100399.25;;;18.55;67.89
63035;BME280;59750;53.356;-1.458;2022-08-21T10:01:15;100390.16;;;18.66;67.94
63035;BME280;59750;53.356;-1.458;2022-08-21T10:03:44;100400.34;;;19.11;69.14
63035;BME280;59750;53.356;-1.458;2022-08-21T10:06:25;100395.47;;;19.63;67.98
63035;BME280;59750;53.356;-1.458;2022-08-21T10:09:06;100394.03;;;20.31;64.86
63035;BME280;59750;53.356;-1.458;2022-08-21T10:11:33;100401.63;;;20.73;64.12
63035;BME280;59750;53.356;-1.458;2022-08-21T10:14:24;100411.63;;;20.56;63.79
63035;BME280;59750;53.356;-1.458;2022-08-21T10:17:14;100400.41;;;20.22;64.34
63035;BME280;59750;53.356;-1.458;2022-08-21T10:20:10;100411.41;;;19.88;65.01
63035;BME280;59750;53.356;-1.458;2022-08-21T10:22:45;100404.97;;;19.66;62.75
63035;BME280;59750;53.356;-1.458;2022-08-21T10:25:21;100403.81;;;19.60;65.19
63035;BME280;59750;53.356;-1.458;2022-08-21T10:28:17;100407.59;;;19.82;65.24
63035;BME280;59750;53.356;-1.458;2022-08-21T10:36:43;100395.72;;;22.56;57.22
63035;BME280;59750;53.356;-1.458;2022-08-21T10:39:21;100390.13;;;22.94;55.65
63035;BME280;59750;53.356;-1.458;2022-08-21T10:44:49;100388.50;;;24.18;53.39
63035;BME280;59750;53.356;-1.458;2022-08-21T10:55:24;100381.47;;;25.11;48.65
63035;BME280;59750;53.356;-1.458;2022-08-21T10:57:55;100387.88;;;25.49;46.25
63035;BME280;59750;53.356;-1.458;2022-08-21T11:00:29;100392.03;;;25.12;48.57
63035;BME280;59750;53.356;-1.458;2022-08-21T11:03:04;100389.59;;;24.37;49.97
63035;BME280;59750;53.356;-1.458;2022-08-21T11:08:15;100394.84;;;22.92;55.62
63035;BME280;59750;53.356;-1.458;2022-08-21T11:10:49;100391.41;;;22.40;54.85
63035;BME280;59750;53.356;-1.458;2022-08-21T11:13:40;100407.44;;;21.75;55.45
63035;BME280;59750;53.356;-1.458;2022-08-21T11:16:17;100403.28;;;21.20;56.95
63035;BME280;59750;53.356;-1.458;2022-08-21T11:18:55;100402.59;;;20.80;57.14
63035;BME280;59750;53.356;-1.458;2022-08-21T11:29:53;100414.94;;;20.27;61.58
63035;BME280;59750;53.356;-1.458;2022-08-21T11:35:28;100415.75;;;19.89;62.48
63035;BME280;59750;53.356;-1.458;2022-08-21T11:38:00;100420.03;;;20.06;63.31
63035;BME280;59750;53.356;-1.458;2022-08-21T11:46:14;100398.56;;;21.89;60.54
63035;BME280;59750;53.356;-1.458;2022-08-21T11:52:02;100398.09;;;22.30;56.46
63035;BME280;59750;53.356;-1.458;2022-08-21T11:54:57;100398.16;;;22.36;56.88
63035;BME280;59750;53.356;-1.458;2022-08-21T11:57:34;100405.81;;;22.39;56.81
63035;BME280;59750;53.356;-1.458;2022-08-21T12:00:22;100403.91;;;22.18;56.64
63035;BME280;59750;53.356;-1.458;2022-08-21T12:02:56;100404.28;;;22.30;56.54
63035;BME280;59750;53.356;-1.458;2022-08-21T12:05:34;100414.19;;;22.30;57.38
63035;BME280;59750;53.356;-1.458;2022-08-21T12:08:33;100405.25;;;21.93;55.17
63035;BME280;59750;53.356;-1.458;2022-08-21T12:11:10;100409.84;;;21.99;56.54
63035;BME280;59750;53.356;-1.458;2022-08-21T12:14:00;100412.31;;;21.86;58.54
63035;BME280;59750;53.356;-1.458;2022-08-21T12:16:42;100412.31;;;21.86;59.47
63035;BME280;59750;53.356;-1.458;2022-08-21T12:19:13;100415.94;;;21.93;56.77
63035;BME280;59750;53.356;-1.458;2022-08-21T12:21:59;100393.97;;;21.83;55.64
63035;BME280;59750;53.356;-1.458;2022-08-21T12:24:39;100410.31;;;22.03;57.46
63035;BME280;59750;53.356;-1.458;2022-08-21T12:27:30;100409.66;;;22.15;58.21
63035;BME280;59750;53.356;-1.458;2022-08-21T12:33:01;100403.19;;;22.61;56.65
63035;BME280;59750;53.356;-1.458;2022-08-21T12:35:35;100397.03;;;23.03;54.63
63035;BME280;59750;53.356;-1.458;2022-08-21T12:38:07;100388.25;;;23.43;55.74
63035;BME280;59750;53.356;-1.458;2022-08-21T12:40:41;100395.41;;;23.58;54.58
63035;BME280;59750;53.356;-1.458;2022-08-21T12:43:15;100393.81;;;23.70;54.27
63035;BME280;59750;53.356;-1.458;2022-08-21T12:45:45;100390.69;;;23.60;53.47
63035;BME280;59750;53.356;-1.458;2022-08-21T12:48:19;100390.97;;;23.22;54.22
63035;BME280;59750;53.356;-1.458;2022-08-21T12:53:40;100383.06;;;22.71;54.97
63035;BME280;59750;53.356;-1.458;2022-08-21T12:56:11;100393.75;;;22.29;54.96
63035;BME280;59750;53.356;-1.458;2022-08-21T12:58:40;100399.50;;;22.26;57.39
63035;BME280;59750;53.356;-1.458;2022-08-21T13:01:34;100407.63;;;22.03;58.41
63035;BME280;59750;53.356;-1.458;2022-08-21T13:04:07;100407.91;;;21.78;57.81
63035;BME280;59750;53.356;-1.458;2022-08-21T13:06:41;100409.09;;;21.46;58.48
63035;BME280;59750;53.356;-1.458;2022-08-21T13:09:15;100417.91;;;21.32;57.81
63035;BME280;59750;53.356;-1.458;2022-08-21T13:11:45;100406.19;;;21.33;58.22
63035;BME280;59750;53.356;-1.458;2022-08-21T13:14:33;100401.63;;;21.42;59.82
63035;BME280;59750;53.356;-1.458;2022-08-21T13:17:04;100403.47;;;21.41;59.01
63035;BME280;59750;53.356;-1.458;2022-08-21T13:19:31;100400.97;;;21.54;58.37
63035;BME280;59750;53.356;-1.458;2022-08-21T13:21:59;100406.00;;;21.35;58.27
63035;BME280;59750;53.356;-1.458;2022-08-21T13:24:27;100412.13;;;21.43;59.90
63035;BME280;59750;53.356;-1.458;2022-08-21T13:26:55;100405.19;;;21.34;58.87
63035;BME280;59750;53.356;-1.458;2022-08-21T13:29:29;100403.16;;;21.36;59.96
63035;BME280;59750;53.356;-1.458;2022-08-21T13:32:00;100411.03;;;21.38;60.16
63035;BME280;59750;53.356;-1.458;2022-08-21T13:34:33;100413.50;;;21.39;59.35
63035;BME280;59750;53.356;-1.458;2022-08-21T13:37:07;100411.03;;;21.15;57.69
63035;BME280;59750;53.356;-1.458;2022-08-21T13:39:35;100413.75;;;21.07;58.94
63035;BME280;59750;53.356;-1.458;2022-08-21T13:42:04;100409.38;;;21.14;60.45
63035;BME280;59750;53.356;-1.458;2022-08-21T13:44:41;100406.13;;;21.18;60.29
63035;BME280;59750;53.356;-1.458;2022-08-21T13:47:12;100410.19;;;21.14;60.73
63035;BME280;59750;53.356;-1.458;2022-08-21T13:49:43;100414.53;;;21.15;59.33
63035;BME280;59750;53.356;-1.458;2022-08-21T13:52:17;100405.44;;;21.02;59.13
63035;BME280;59750;53.356;-1.458;2022-08-21T13:54:54;100406.41;;;20.86;60.96